Fort Benning, Georgia
Current Conditions -  °F | °C
As of 10:33 AM on Saturday 20 Dec 2014 (Local Time) from KLSF Reporting Station
Overcast Overcast  
Wind Chill: 48°   Ceiling: 1100
Heat Index: 48°   Visibility: 10mi
Dew Point: 46°   Wind: 3mph
Humidity: 93%   Direction: 10°N
Pressure: 30.21"   Gusts: NA
Location:  32.35°N, 84.97°W
Report Text: KLSF 201533Z AUTO 01003KT 10SM SCT007 BKN011 OVC022 09/08 A3021 RMK AO2 CIG 011V022 BKN V SCT CIG 006 RWY15
Loading
Personal Weather Stations






























Interactive Weather Map New forecast layout! Learn more

10-Day Weather Forecast

Advertisements
Track Severe Weather on mobile